createdAt,value
2023-01-11T00:06:18.311Z,70
2023-01-11T00:35:38.977Z,71
2023-01-11T01:04:56.277Z,73
2023-01-11T01:34:15.335Z,75
2023-01-11T02:03:40.633Z,77
2023-01-11T02:33:08.298Z,79
2023-01-11T03:02:30.407Z,80
2023-01-11T03:31:47.559Z,82
2023-01-11T04:01:11.490Z,82
2023-01-11T04:30:29.047Z,80
2023-01-11T04:59:49.506Z,80
2023-01-11T05:29:13.005Z,80
2023-01-11T05:58:28.105Z,80
2023-01-11T06:27:45.375Z,80
2023-01-11T06:57:04.717Z,80
2023-01-11T07:26:23.391Z,81
2023-01-11T07:55:32.764Z,81
2023-01-11T08:24:55.106Z,79
2023-01-11T08:54:13.348Z,78
2023-01-11T09:23:35.904Z,76
2023-01-11T09:52:47.224Z,76
2023-01-11T10:22:05.568Z,80
2023-01-11T10:51:19.463Z,87
2023-01-11T11:20:42.032Z,90
2023-01-11T11:50:04.811Z,92
2023-01-11T12:19:28.773Z,94
2023-01-11T12:48:55.107Z,95
2023-01-11T13:18:18.520Z,97
2023-01-11T13:47:39.607Z,94
2023-01-11T14:16:58.514Z,94
2023-01-11T14:46:20.804Z,96
2023-01-11T15:15:31.701Z,92
2023-01-11T15:44:38.664Z,88
2023-01-11T16:13:42.946Z,87
2023-01-11T16:42:58.719Z,86
2023-01-11T17:12:15.832Z,85
2023-01-11T17:41:30.711Z,82
2023-01-11T18:10:38.897Z,84
2023-01-11T18:39:59.793Z,78
2023-01-11T19:09:19.401Z,79
2023-01-11T19:38:40.283Z,81
2023-01-11T20:08:00.234Z,81
2023-01-11T20:37:22.582Z,81
2023-01-11T21:06:17.166Z,81
2023-01-11T21:35:21.289Z,79
2023-01-11T22:04:35.752Z,78
2023-01-11T22:33:39.556Z,80
2023-01-11T23:03:00.051Z,76
2023-01-11T23:32:01.768Z,79
